sensor_id;sensor_type;location;lat;lon;timestamp;P1;durP1;ratioP1;P2;durP2;ratioP2
15982;SDS011;14442;50.196;8.096;2023-02-05T00:00:36;1.40;;;1.30;;
15982;SDS011;14442;50.196;8.096;2023-02-05T00:03:03;1.53;;;1.13;;
15982;SDS011;14442;50.196;8.096;2023-02-05T00:05:30;2.20;;;1.40;;
15982;SDS011;14442;50.196;8.096;2023-02-05T00:07:56;2.50;;;1.37;;
15982;SDS011;14442;50.196;8.096;2023-02-05T00:10:24;1.40;;;1.30;;
15982;SDS011;14442;50.196;8.096;2023-02-05T00:12:51;4.83;;;1.70;;
15982;SDS011;14442;50.196;8.096;2023-02-05T00:15:18;2.43;;;1.40;;
15982;SDS011;14442;50.196;8.096;2023-02-05T00:17:45;2.27;;;1.23;;
15982;SDS011;14442;50.196;8.096;2023-02-05T00:20:11;2.43;;;1.40;;
15982;SDS011;14442;50.196;8.096;2023-02-05T00:22:38;2.47;;;1.30;;
15982;SDS011;14442;50.196;8.096;2023-02-05T00:25:05;3.63;;;1.70;;
15982;SDS011;14442;50.196;8.096;2023-02-05T00:27:33;2.30;;;1.60;;
15982;SDS011;14442;50.196;8.096;2023-02-05T00:30:00;1.10;;;1.00;;
15982;SDS011;14442;50.196;8.096;2023-02-05T00:32:29;3.00;;;1.63;;
15982;SDS011;14442;50.196;8.096;2023-02-05T00:34:55;4.00;;;1.57;;
15982;SDS011;14442;50.196;8.096;2023-02-05T00:37:22;2.13;;;1.40;;
15982;SDS011;14442;50.196;8.096;2023-02-05T00:39:49;2.20;;;1.10;;
15982;SDS011;14442;50.196;8.096;2023-02-05T00:42:15;2.20;;;1.50;;
15982;SDS011;14442;50.196;8.096;2023-02-05T00:44:43;0.90;;;0.90;;
15982;SDS011;14442;50.196;8.096;2023-02-05T00:47:10;1.20;;;1.10;;
15982;SDS011;14442;50.196;8.096;2023-02-05T00:49:37;1.70;;;1.00;;
15982;SDS011;14442;50.196;8.096;2023-02-05T00:52:03;1.80;;;0.93;;
15982;SDS011;14442;50.196;8.096;2023-02-05T00:54:30;1.40;;;1.00;;
15982;SDS011;14442;50.196;8.096;2023-02-05T00:56:57;2.20;;;1.30;;
15982;SDS011;14442;50.196;8.096;2023-02-05T00:59:23;1.87;;;1.30;;
15982;SDS011;14442;50.196;8.096;2023-02-05T01:01:51;1.57;;;0.90;;
15982;SDS011;14442;50.196;8.096;2023-02-05T01:04:18;2.30;;;1.10;;
15982;SDS011;14442;50.196;8.096;2023-02-05T01:06:45;1.23;;;0.93;;
15982;SDS011;14442;50.196;8.096;2023-02-05T01:09:11;1.27;;;1.17;;
15982;SDS011;14442;50.196;8.096;2023-02-05T01:11:38;1.80;;;1.10;;
15982;SDS011;14442;50.196;8.096;2023-02-05T01:14:05;1.67;;;1.10;;
15982;SDS011;14442;50.196;8.096;2023-02-05T01:16:31;3.47;;;1.17;;
15982;SDS011;14442;50.196;8.096;2023-02-05T01:18:59;2.10;;;1.20;;
15982;SDS011;14442;50.196;8.096;2023-02-05T01:21:26;1.60;;;1.40;;
15982;SDS011;14442;50.196;8.096;2023-02-05T01:23:53;4.10;;;1.10;;
15982;SDS011;14442;50.196;8.096;2023-02-05T01:26:21;1.40;;;1.30;;
15982;SDS011;14442;50.196;8.096;2023-02-05T01:28:48;2.00;;;1.17;;
15982;SDS011;14442;50.196;8.096;2023-02-05T01:31:15;1.20;;;1.10;;
15982;SDS011;14442;50.196;8.096;2023-02-05T01:33:41;1.23;;;1.00;;
15982;SDS011;14442;50.196;8.096;2023-02-05T01:36:09;0.97;;;0.97;;
15982;SDS011;14442;50.196;8.096;2023-02-05T01:38:36;1.40;;;1.03;;
15982;SDS011;14442;50.196;8.096;2023-02-05T01:41:03;1.83;;;1.00;;
15982;SDS011;14442;50.196;8.096;2023-02-05T01:43:31;1.40;;;1.23;;
15982;SDS011;14442;50.196;8.096;2023-02-05T01:46:05;1.60;;;1.00;;
15982;SDS011;14442;50.196;8.096;2023-02-05T01:48:42;1.57;;;1.10;;
15982;SDS011;14442;50.196;8.096;2023-02-05T01:51:13;1.03;;;0.93;;
15982;SDS011;14442;50.196;8.096;2023-02-05T01:53:41;0.90;;;0.90;;
15982;SDS011;14442;50.196;8.096;2023-02-05T01:56:09;1.00;;;0.90;;
15982;SDS011;14442;50.196;8.096;2023-02-05T01:58:39;1.13;;;0.80;;
15982;SDS011;14442;50.196;8.096;2023-02-05T02:01:08;1.43;;;1.00;;
15982;SDS011;14442;50.196;8.096;2023-02-05T02:03:35;0.83;;;0.70;;
15982;SDS011;14442;50.196;8.096;2023-02-05T02:06:03;1.00;;;0.93;;
15982;SDS011;14442;50.196;8.096;2023-02-05T02:08:31;0.80;;;0.63;;
15982;SDS011;14442;50.196;8.096;2023-02-05T02:10:58;1.10;;;1.00;;
15982;SDS011;14442;50.196;8.096;2023-02-05T02:13:26;1.07;;;0.97;;
15982;SDS011;14442;50.196;8.096;2023-02-05T02:15:55;1.27;;;0.83;;
15982;SDS011;14442;50.196;8.096;2023-02-05T02:18:22;0.80;;;0.80;;
15982;SDS011;14442;50.196;8.096;2023-02-05T02:20:59;2.00;;;0.73;;
15982;SDS011;14442;50.196;8.096;2023-02-05T02:23:55;1.10;;;1.00;;
15982;SDS011;14442;50.196;8.096;2023-02-05T02:26:45;1.10;;;0.70;;
15982;SDS011;14442;50.196;8.096;2023-02-05T02:29:24;1.87;;;0.90;;
15982;SDS011;14442;50.196;8.096;2023-02-05T02:32:00;1.20;;;0.60;;
15982;SDS011;14442;50.196;8.096;2023-02-05T02:34:36;1.20;;;0.70;;
15982;SDS011;14442;50.196;8.096;2023-02-05T02:37:06;0.70;;;0.67;;
15982;SDS011;14442;50.196;8.096;2023-02-05T02:39:37;0.60;;;0.60;;
15982;SDS011;14442;50.196;8.096;2023-02-05T02:42:07;0.87;;;0.80;;
15982;SDS011;14442;50.196;8.096;2023-02-05T02:44:40;1.33;;;0.70;;
15982;SDS011;14442;50.196;8.096;2023-02-05T02:47:10;1.40;;;0.80;;
15982;SDS011;14442;50.196;8.096;2023-02-05T02:49:39;0.83;;;0.80;;
15982;SDS011;14442;50.196;8.096;2023-02-05T02:52:09;0.93;;;0.80;;
15982;SDS011;14442;50.196;8.096;2023-02-05T02:54:40;0.50;;;0.50;;
15982;SDS011;14442;50.196;8.096;2023-02-05T02:57:11;2.23;;;1.10;;
15982;SDS011;14442;50.196;8.096;2023-02-05T02:59:42;0.70;;;0.70;;
15982;SDS011;14442;50.196;8.096;2023-02-05T03:02:11;1.50;;;0.90;;
15982;SDS011;14442;50.196;8.096;2023-02-05T03:04:40;0.97;;;0.97;;
15982;SDS011;14442;50.196;8.096;2023-02-05T03:07:11;0.80;;;0.63;;
15982;SDS011;14442;50.196;8.096;2023-02-05T03:09:45;0.77;;;0.70;;
15982;SDS011;14442;50.196;8.096;2023-02-05T03:12:15;1.00;;;0.80;;
15982;SDS011;14442;50.196;8.096;2023-02-05T03:14:44;0.70;;;0.60;;
15982;SDS011;14442;50.196;8.096;2023-02-05T03:17:11;2.00;;;1.00;;
15982;SDS011;14442;50.196;8.096;2023-02-05T03:19:42;1.70;;;0.83;;
15982;SDS011;14442;50.196;8.096;2023-02-05T03:22:09;0.50;;;0.50;;
15982;SDS011;14442;50.196;8.096;2023-02-05T03:24:36;2.47;;;1.00;;
15982;SDS011;14442;50.196;8.096;2023-02-05T03:27:03;0.93;;;0.70;;
15982;SDS011;14442;50.196;8.096;2023-02-05T03:29:31;1.03;;;0.70;;
15982;SDS011;14442;50.196;8.096;2023-02-05T03:32:05;1.03;;;0.73;;
15982;SDS011;14442;50.196;8.096;2023-02-05T03:34:44;0.80;;;0.70;;
15982;SDS011;14442;50.196;8.096;2023-02-05T03:37:23;0.97;;;0.63;;
15982;SDS011;14442;50.196;8.096;2023-02-05T03:40:00;1.00;;;0.80;;
15982;SDS011;14442;50.196;8.096;2023-02-05T03:42:39;1.60;;;1.00;;
15982;SDS011;14442;50.196;8.096;2023-02-05T03:45:17;0.97;;;0.57;;
15982;SDS011;14442;50.196;8.096;2023-02-05T03:50:48;1.40;;;0.93;;
15982;SDS011;14442;50.196;8.096;2023-02-05T03:53:21;1.43;;;0.70;;
15982;SDS011;14442;50.196;8.096;2023-02-05T03:55:54;1.07;;;0.77;;
15982;SDS011;14442;50.196;8.096;2023-02-05T03:58:26;1.47;;;0.80;;
15982;SDS011;14442;50.196;8.096;2023-02-05T04:00:57;1.30;;;0.50;;
15982;SDS011;14442;50.196;8.096;2023-02-05T04:03:26;0.70;;;0.70;;
15982;SDS011;14442;50.196;8.096;2023-02-05T04:05:53;2.40;;;0.90;;
15982;SDS011;14442;50.196;8.096;2023-02-05T04:08:20;1.03;;;0.60;;
15982;SDS011;14442;50.196;8.096;2023-02-05T04:10:46;1.03;;;0.53;;
15982;SDS011;14442;50.196;8.096;2023-02-05T04:13:13;0.80;;;0.57;;
15982;SDS011;14442;50.196;8.096;2023-02-05T04:15:40;1.20;;;0.83;;
15982;SDS011;14442;50.196;8.096;2023-02-05T04:18:06;1.63;;;1.00;;
15982;SDS011;14442;50.196;8.096;2023-02-05T04:20:34;0.70;;;0.70;;
15982;SDS011;14442;50.196;8.096;2023-02-05T04:23:02;0.80;;;0.80;;
15982;SDS011;14442;50.196;8.096;2023-02-05T04:25:29;1.03;;;0.63;;
15982;SDS011;14442;50.196;8.096;2023-02-05T04:27:55;0.80;;;0.60;;
15982;SDS011;14442;50.196;8.096;2023-02-05T04:30:22;1.20;;;0.80;;
15982;SDS011;14442;50.196;8.096;2023-02-05T04:32:49;1.17;;;0.70;;
15982;SDS011;14442;50.196;8.096;2023-02-05T04:35:15;0.80;;;0.80;;
15982;SDS011;14442;50.196;8.096;2023-02-05T04:37:43;0.90;;;0.70;;
15982;SDS011;14442;50.196;8.096;2023-02-05T04:40:10;1.53;;;0.87;;
15982;SDS011;14442;50.196;8.096;2023-02-05T04:42:37;1.63;;;0.90;;
15982;SDS011;14442;50.196;8.096;2023-02-05T04:45:03;0.80;;;0.60;;
15982;SDS011;14442;50.196;8.096;2023-02-05T04:47:31;0.60;;;0.60;;
15982;SDS011;14442;50.196;8.096;2023-02-05T04:49:58;0.60;;;0.60;;
15982;SDS011;14442;50.196;8.096;2023-02-05T04:52:24;1.20;;;0.70;;
15982;SDS011;14442;50.196;8.096;2023-02-05T04:54:52;1.20;;;0.60;;
15982;SDS011;14442;50.196;8.096;2023-02-05T04:57:19;0.87;;;0.53;;
15982;SDS011;14442;50.196;8.096;2023-02-05T04:59:46;1.20;;;0.67;;
15982;SDS011;14442;50.196;8.096;2023-02-05T05:02:12;1.23;;;0.80;;
15982;SDS011;14442;50.196;8.096;2023-02-05T05:04:39;1.03;;;0.70;;
15982;SDS011;14442;50.196;8.096;2023-02-05T05:07:07;0.77;;;0.67;;
15982;SDS011;14442;50.196;8.096;2023-02-05T05:09:34;1.03;;;0.70;;
15982;SDS011;14442;50.196;8.096;2023-02-05T05:12:02;0.50;;;0.50;;
15982;SDS011;14442;50.196;8.096;2023-02-05T05:14:29;1.00;;;0.80;;
15982;SDS011;14442;50.196;8.096;2023-02-05T05:16:56;1.00;;;0.60;;
15982;SDS011;14442;50.196;8.096;2023-02-05T05:19:23;1.43;;;0.70;;
15982;SDS011;14442;50.196;8.096;2023-02-05T05:21:49;1.80;;;0.70;;
15982;SDS011;14442;50.196;8.096;2023-02-05T05:24:16;1.03;;;0.70;;
15982;SDS011;14442;50.196;8.096;2023-02-05T05:26:43;0.90;;;0.80;;
15982;SDS011;14442;50.196;8.096;2023-02-05T05:29:12;1.17;;;0.80;;
15982;SDS011;14442;50.196;8.096;2023-02-05T05:31:39;0.67;;;0.50;;
15982;SDS011;14442;50.196;8.096;2023-02-05T05:34:06;1.30;;;0.67;;
15982;SDS011;14442;50.196;8.096;2023-02-05T05:36:33;1.13;;;0.63;;
15982;SDS011;14442;50.196;8.096;2023-02-05T05:39:00;1.33;;;0.93;;
15982;SDS011;14442;50.196;8.096;2023-02-05T05:41:40;0.83;;;0.60;;
15982;SDS011;14442;50.196;8.096;2023-02-05T05:44:26;2.47;;;0.83;;
15982;SDS011;14442;50.196;8.096;2023-02-05T05:46:53;1.00;;;0.50;;
15982;SDS011;14442;50.196;8.096;2023-02-05T05:49:19;0.73;;;0.67;;
15982;SDS011;14442;50.196;8.096;2023-02-05T05:51:46;1.23;;;0.80;;
15982;SDS011;14442;50.196;8.096;2023-02-05T05:54:12;0.77;;;0.60;;
15982;SDS011;14442;50.196;8.096;2023-02-05T05:56:39;1.43;;;0.80;;
15982;SDS011;14442;50.196;8.096;2023-02-05T05:59:06;1.00;;;0.70;;
15982;SDS011;14442;50.196;8.096;2023-02-05T06:01:34;4.00;;;0.87;;
15982;SDS011;14442;50.196;8.096;2023-02-05T06:04:00;0.60;;;0.60;;
15982;SDS011;14442;50.196;8.096;2023-02-05T06:06:27;0.50;;;0.50;;
15982;SDS011;14442;50.196;8.096;2023-02-05T06:08:54;0.97;;;0.70;;
15982;SDS011;14442;50.196;8.096;2023-02-05T06:11:20;1.70;;;0.90;;
15982;SDS011;14442;50.196;8.096;2023-02-05T06:13:47;2.17;;;0.80;;
15982;SDS011;14442;50.196;8.096;2023-02-05T06:16:14;0.80;;;0.77;;
15982;SDS011;14442;50.196;8.096;2023-02-05T06:18:42;0.73;;;0.50;;
15982;SDS011;14442;50.196;8.096;2023-02-05T06:21:08;0.57;;;0.50;;
15982;SDS011;14442;50.196;8.096;2023-02-05T06:23:35;1.73;;;0.60;;
15982;SDS011;14442;50.196;8.096;2023-02-05T06:26:01;1.00;;;0.83;;
15982;SDS011;14442;50.196;8.096;2023-02-05T06:28:28;0.87;;;0.80;;
15982;SDS011;14442;50.196;8.096;2023-02-05T06:30:55;2.13;;;1.00;;
15982;SDS011;14442;50.196;8.096;2023-02-05T06:33:22;1.73;;;1.00;;
15982;SDS011;14442;50.196;8.096;2023-02-05T06:35:50;1.47;;;0.70;;
15982;SDS011;14442;50.196;8.096;2023-02-05T06:38:16;1.13;;;1.00;;
15982;SDS011;14442;50.196;8.096;2023-02-05T06:40:43;1.10;;;0.90;;
15982;SDS011;14442;50.196;8.096;2023-02-05T06:43:10;1.67;;;1.03;;
15982;SDS011;14442;50.196;8.096;2023-02-05T06:45:36;0.80;;;0.60;;
15982;SDS011;14442;50.196;8.096;2023-02-05T06:48:03;1.53;;;1.20;;
15982;SDS011;14442;50.196;8.096;2023-02-05T06:50:30;1.60;;;1.03;;
15982;SDS011;14442;50.196;8.096;2023-02-05T06:52:58;3.47;;;0.97;;
15982;SDS011;14442;50.196;8.096;2023-02-05T06:55:25;2.47;;;0.93;;
15982;SDS011;14442;50.196;8.096;2023-02-05T06:57:51;0.87;;;0.70;;
15982;SDS011;14442;50.196;8.096;2023-02-05T07:00:18;0.97;;;0.80;;
15982;SDS011;14442;50.196;8.096;2023-02-05T07:02:45;1.40;;;0.80;;
15982;SDS011;14442;50.196;8.096;2023-02-05T07:05:12;0.90;;;0.90;;
15982;SDS011;14442;50.196;8.096;2023-02-05T07:07:38;1.30;;;1.13;;
15982;SDS011;14442;50.196;8.096;2023-02-05T07:10:07;1.10;;;0.90;;
15982;SDS011;14442;50.196;8.096;2023-02-05T07:12:34;1.30;;;0.90;;
15982;SDS011;14442;50.196;8.096;2023-02-05T07:15:01;2.00;;;1.00;;
15982;SDS011;14442;50.196;8.096;2023-02-05T07:17:28;2.30;;;1.30;;
15982;SDS011;14442;50.196;8.096;2023-02-05T07:19:55;1.23;;;1.00;;
15982;SDS011;14442;50.196;8.096;2023-02-05T07:22:22;1.20;;;0.70;;
15982;SDS011;14442;50.196;8.096;2023-02-05T07:24:49;1.80;;;0.90;;
15982;SDS011;14442;50.196;8.096;2023-02-05T07:27:17;2.27;;;1.20;;
15982;SDS011;14442;50.196;8.096;2023-02-05T07:29:44;1.33;;;1.00;;
15982;SDS011;14442;50.196;8.096;2023-02-05T07:32:11;1.53;;;1.10;;
15982;SDS011;14442;50.196;8.096;2023-02-05T07:34:37;0.80;;;0.80;;
15982;SDS011;14442;50.196;8.096;2023-02-05T07:37:04;1.17;;;1.10;;
15982;SDS011;14442;50.196;8.096;2023-02-05T07:39:31;2.13;;;1.03;;
15982;SDS011;14442;50.196;8.096;2023-02-05T07:41:58;1.20;;;1.10;;
15982;SDS011;14442;50.196;8.096;2023-02-05T07:44:26;1.00;;;0.97;;
15982;SDS011;14442;50.196;8.096;2023-02-05T07:46:53;1.93;;;1.17;;
15982;SDS011;14442;50.196;8.096;2023-02-05T07:49:20;1.53;;;1.10;;
15982;SDS011;14442;50.196;8.096;2023-02-05T07:51:47;1.33;;;0.90;;
15982;SDS011;14442;50.196;8.096;2023-02-05T07:54:14;1.50;;;1.20;;
15982;SDS011;14442;50.196;8.096;2023-02-05T07:56:41;1.47;;;0.97;;
15982;SDS011;14442;50.196;8.096;2023-02-05T07:59:08;1.30;;;1.00;;
15982;SDS011;14442;50.196;8.096;2023-02-05T08:01:36;1.30;;;1.20;;
15982;SDS011;14442;50.196;8.096;2023-02-05T08:04:02;1.20;;;1.10;;
15982;SDS011;14442;50.196;8.096;2023-02-05T08:06:29;1.13;;;0.90;;
15982;SDS011;14442;50.196;8.096;2023-02-05T08:08:57;1.23;;;1.13;;
15982;SDS011;14442;50.196;8.096;2023-02-05T08:11:24;1.10;;;1.00;;
15982;SDS011;14442;50.196;8.096;2023-02-05T08:13:50;2.70;;;1.10;;
15982;SDS011;14442;50.196;8.096;2023-02-05T08:16:17;1.20;;;1.10;;
15982;SDS011;14442;50.196;8.096;2023-02-05T08:18:47;1.20;;;1.10;;
15982;SDS011;14442;50.196;8.096;2023-02-05T08:21:14;2.53;;;1.20;;
15982;SDS011;14442;50.196;8.096;2023-02-05T08:23:41;3.17;;;1.30;;
15982;SDS011;14442;50.196;8.096;2023-02-05T08:26:08;2.57;;;1.40;;
15982;SDS011;14442;50.196;8.096;2023-02-05T08:28:36;3.23;;;1.50;;
15982;SDS011;14442;50.196;8.096;2023-02-05T08:31:07;2.83;;;2.00;;
15982;SDS011;14442;50.196;8.096;2023-02-05T08:33:35;7.47;;;2.83;;
15982;SDS011;14442;50.196;8.096;2023-02-05T08:36:03;5.20;;;3.57;;
15982;SDS011;14442;50.196;8.096;2023-02-05T08:38:30;4.60;;;3.53;;
15982;SDS011;14442;50.196;8.096;2023-02-05T08:40:57;7.03;;;3.70;;
15982;SDS011;14442;50.196;8.096;2023-02-05T08:43:23;4.23;;;3.83;;
15982;SDS011;14442;50.196;8.096;2023-02-05T08:45:50;5.40;;;4.00;;
15982;SDS011;14442;50.196;8.096;2023-02-05T08:48:17;12.23;;;4.70;;
15982;SDS011;14442;50.196;8.096;2023-02-05T08:50:44;9.37;;;4.67;;
15982;SDS011;14442;50.196;8.096;2023-02-05T08:53:12;10.87;;;4.47;;
15982;SDS011;14442;50.196;8.096;2023-02-05T08:55:39;10.73;;;4.50;;
15982;SDS011;14442;50.196;8.096;2023-02-05T08:58:05;9.93;;;4.47;;
15982;SDS011;14442;50.196;8.096;2023-02-05T09:00:32;7.73;;;5.30;;
15982;SDS011;14442;50.196;8.096;2023-02-05T09:03:01;14.43;;;7.67;;
15982;SDS011;14442;50.196;8.096;2023-02-05T09:05:28;14.57;;;6.37;;
15982;SDS011;14442;50.196;8.096;2023-02-05T09:07:55;11.67;;;7.27;;
15982;SDS011;14442;50.196;8.096;2023-02-05T09:10:24;13.33;;;6.93;;
15982;SDS011;14442;50.196;8.096;2023-02-05T09:12:51;10.53;;;6.03;;
15982;SDS011;14442;50.196;8.096;2023-02-05T09:15:17;13.97;;;5.53;;
15982;SDS011;14442;50.196;8.096;2023-02-05T09:17:44;11.63;;;6.03;;
15982;SDS011;14442;50.196;8.096;2023-02-05T09:20:11;10.70;;;5.60;;
15982;SDS011;14442;50.196;8.096;2023-02-05T09:22:38;10.60;;;5.60;;
15982;SDS011;14442;50.196;8.096;2023-02-05T09:25:05;11.57;;;5.37;;
15982;SDS011;14442;50.196;8.096;2023-02-05T09:27:33;12.40;;;5.13;;
15982;SDS011;14442;50.196;8.096;2023-02-05T09:30:00;8.27;;;4.03;;
15982;SDS011;14442;50.196;8.096;2023-02-05T09:32:26;12.43;;;5.47;;
15982;SDS011;14442;50.196;8.096;2023-02-05T09:34:53;10.63;;;4.63;;
15982;SDS011;14442;50.196;8.096;2023-02-05T09:37:20;8.57;;;3.90;;
15982;SDS011;14442;50.196;8.096;2023-02-05T09:39:47;10.93;;;4.00;;
15982;SDS011;14442;50.196;8.096;2023-02-05T09:42:18;5.93;;;4.10;;
15982;SDS011;14442;50.196;8.096;2023-02-05T09:44:55;5.30;;;3.57;;
15982;SDS011;14442;50.196;8.096;2023-02-05T09:47:29;9.10;;;3.90;;
15982;SDS011;14442;50.196;8.096;2023-02-05T09:50:01;4.70;;;3.57;;
15982;SDS011;14442;50.196;8.096;2023-02-05T09:52:33;7.33;;;3.90;;
15982;SDS011;14442;50.196;8.096;2023-02-05T09:55:03;3.57;;;3.20;;
15982;SDS011;14442;50.196;8.096;2023-02-05T09:57:39;5.17;;;3.83;;
15982;SDS011;14442;50.196;8.096;2023-02-05T10:00:12;3.70;;;3.33;;
15982;SDS011;14442;50.196;8.096;2023-02-05T10:02:45;5.17;;;3.00;;
15982;SDS011;14442;50.196;8.096;2023-02-05T10:05:16;3.20;;;2.80;;
15982;SDS011;14442;50.196;8.096;2023-02-05T10:07:45;4.73;;;2.77;;
15982;SDS011;14442;50.196;8.096;2023-02-05T10:10:18;3.80;;;2.87;;
15982;SDS011;14442;50.196;8.096;2023-02-05T10:13:02;2.90;;;2.60;;
15982;SDS011;14442;50.196;8.096;2023-02-05T10:15:51;4.60;;;2.80;;
15982;SDS011;14442;50.196;8.096;2023-02-05T10:18:40;3.40;;;2.67;;
15982;SDS011;14442;50.196;8.096;2023-02-05T10:21:17;5.40;;;2.90;;
15982;SDS011;14442;50.196;8.096;2023-02-05T10:24:00;3.77;;;2.97;;
15982;SDS011;14442;50.196;8.096;2023-02-05T10:26:43;6.47;;;2.90;;
15982;SDS011;14442;50.196;8.096;2023-02-05T10:29:16;6.40;;;2.50;;
15982;SDS011;14442;50.196;8.096;2023-02-05T10:32:03;2.80;;;2.60;;
15982;SDS011;14442;50.196;8.096;2023-02-05T10:34:46;3.30;;;2.50;;
15982;SDS011;14442;50.196;8.096;2023-02-05T10:37:29;4.13;;;2.50;;
15982;SDS011;14442;50.196;8.096;2023-02-05T10:40:09;2.70;;;2.27;;
15982;SDS011;14442;50.196;8.096;2023-02-05T10:42:38;4.20;;;2.37;;
15982;SDS011;14442;50.196;8.096;2023-02-05T10:45:12;2.27;;;2.07;;
15982;SDS011;14442;50.196;8.096;2023-02-05T10:47:52;5.50;;;2.53;;
15982;SDS011;14442;50.196;8.096;2023-02-05T10:50:27;8.30;;;2.80;;
15982;SDS011;14442;50.196;8.096;2023-02-05T10:53:01;5.00;;;2.43;;
15982;SDS011;14442;50.196;8.096;2023-02-05T10:55:28;3.70;;;2.17;;
15982;SDS011;14442;50.196;8.096;2023-02-05T10:57:55;2.80;;;2.03;;
15982;SDS011;14442;50.196;8.096;2023-02-05T11:00:22;2.33;;;2.10;;
15982;SDS011;14442;50.196;8.096;2023-02-05T11:02:52;2.43;;;1.50;;
15982;SDS011;14442;50.196;8.096;2023-02-05T11:05:23;3.70;;;1.77;;
15982;SDS011;14442;50.196;8.096;2023-02-05T11:07:55;1.77;;;1.67;;
15982;SDS011;14442;50.196;8.096;2023-02-05T11:10:22;2.33;;;1.87;;
15982;SDS011;14442;50.196;8.096;2023-02-05T11:12:51;2.00;;;1.80;;
15982;SDS011;14442;50.196;8.096;2023-02-05T11:15:21;1.83;;;1.27;;
15982;SDS011;14442;50.196;8.096;2023-02-05T11:17:52;8.27;;;2.03;;
15982;SDS011;14442;50.196;8.096;2023-02-05T11:20:21;4.20;;;1.77;;
15982;SDS011;14442;50.196;8.096;2023-02-05T11:23:04;5.47;;;1.37;;
15982;SDS011;14442;50.196;8.096;2023-02-05T11:25:32;2.67;;;1.20;;
15982;SDS011;14442;50.196;8.096;2023-02-05T11:27:59;2.73;;;1.20;;
15982;SDS011;14442;50.196;8.096;2023-02-05T11:30:28;2.57;;;1.07;;
15982;SDS011;14442;50.196;8.096;2023-02-05T11:33:05;1.83;;;0.90;;
15982;SDS011;14442;50.196;8.096;2023-02-05T11:35:47;1.90;;;1.00;;
15982;SDS011;14442;50.196;8.096;2023-02-05T11:38:18;0.83;;;0.80;;
15982;SDS011;14442;50.196;8.096;2023-02-05T11:40:53;1.70;;;0.97;;
15982;SDS011;14442;50.196;8.096;2023-02-05T11:43:24;0.83;;;0.80;;
15982;SDS011;14442;50.196;8.096;2023-02-05T11:45:54;2.73;;;1.10;;
15982;SDS011;14442;50.196;8.096;2023-02-05T11:48:25;1.83;;;0.77;;
15982;SDS011;14442;50.196;8.096;2023-02-05T11:50:58;4.37;;;0.67;;
15982;SDS011;14442;50.196;8.096;2023-02-05T11:53:25;1.97;;;0.50;;
15982;SDS011;14442;50.196;8.096;2023-02-05T11:55:52;2.67;;;0.67;;
15982;SDS011;14442;50.196;8.096;2023-02-05T11:58:23;2.43;;;0.60;;
15982;SDS011;14442;50.196;8.096;2023-02-05T12:00:53;1.50;;;0.67;;
15982;SDS011;14442;50.196;8.096;2023-02-05T12:03:22;1.37;;;0.50;;
15982;SDS011;14442;50.196;8.096;2023-02-05T12:05:53;0.53;;;0.47;;
15982;SDS011;14442;50.196;8.096;2023-02-05T12:08:27;0.87;;;0.70;;
15982;SDS011;14442;50.196;8.096;2023-02-05T12:11:01;0.77;;;0.40;;
15982;SDS011;14442;50.196;8.096;2023-02-05T12:13:50;0.53;;;0.43;;
15982;SDS011;14442;50.196;8.096;2023-02-05T12:16:30;1.80;;;0.50;;
15982;SDS011;14442;50.196;8.096;2023-02-05T12:19:11;2.67;;;0.50;;
15982;SDS011;14442;50.196;8.096;2023-02-05T12:21:47;3.33;;;0.70;;
15982;SDS011;14442;50.196;8.096;2023-02-05T12:24:30;3.23;;;0.40;;
15982;SDS011;14442;50.196;8.096;2023-02-05T12:27:15;2.13;;;0.60;;
15982;SDS011;14442;50.196;8.096;2023-02-05T12:29:59;2.93;;;0.50;;
15982;SDS011;14442;50.196;8.096;2023-02-05T12:32:37;5.50;;;0.70;;
15982;SDS011;14442;50.196;8.096;2023-02-05T12:35:23;1.40;;;0.30;;
15982;SDS011;14442;50.196;8.096;2023-02-05T12:38:02;4.13;;;0.50;;
15982;SDS011;14442;50.196;8.096;2023-02-05T12:40:43;5.00;;;0.63;;
15982;SDS011;14442;50.196;8.096;2023-02-05T12:43:27;2.10;;;0.60;;
15982;SDS011;14442;50.196;8.096;2023-02-05T12:46:03;1.73;;;0.57;;
15982;SDS011;14442;50.196;8.096;2023-02-05T12:48:40;1.17;;;0.40;;
15982;SDS011;14442;50.196;8.096;2023-02-05T12:51:20;3.80;;;0.70;;
15982;SDS011;14442;50.196;8.096;2023-02-05T12:54:04;6.43;;;0.80;;
15982;SDS011;14442;50.196;8.096;2023-02-05T12:56:48;5.30;;;0.63;;
15982;SDS011;14442;50.196;8.096;2023-02-05T12:59:22;4.50;;;0.50;;
15982;SDS011;14442;50.196;8.096;2023-02-05T13:01:58;2.70;;;0.83;;
15982;SDS011;14442;50.196;8.096;2023-02-05T13:04:31;2.43;;;0.40;;
15982;SDS011;14442;50.196;8.096;2023-02-05T13:07:02;2.53;;;0.50;;
15982;SDS011;14442;50.196;8.096;2023-02-05T13:09:40;2.03;;;0.43;;
15982;SDS011;14442;50.196;8.096;2023-02-05T13:12:11;1.33;;;0.40;;
15982;SDS011;14442;50.196;8.096;2023-02-05T13:14:41;2.20;;;0.50;;
15982;SDS011;14442;50.196;8.096;2023-02-05T13:17:14;1.57;;;0.30;;
15982;SDS011;14442;50.196;8.096;2023-02-05T13:19:44;0.57;;;0.43;;
15982;SDS011;14442;50.196;8.096;2023-02-05T13:22:18;1.40;;;0.60;;
15982;SDS011;14442;50.196;8.096;2023-02-05T13:25:14;0.83;;;0.40;;
15982;SDS011;14442;50.196;8.096;2023-02-05T13:28:05;3.50;;;0.90;;
15982;SDS011;14442;50.196;8.096;2023-02-05T13:30:59;11.73;;;5.87;;
15982;SDS011;14442;50.196;8.096;2023-02-05T13:33:27;37.87;;;22.27;;
15982;SDS011;14442;50.196;8.096;2023-02-05T13:35:56;55.47;;;29.97;;
15982;SDS011;14442;50.196;8.096;2023-02-05T13:38:39;64.23;;;37.47;;
15982;SDS011;14442;50.196;8.096;2023-02-05T13:41:32;64.27;;;37.37;;
15982;SDS011;14442;50.196;8.096;2023-02-05T13:47:28;49.20;;;29.60;;
15982;SDS011;14442;50.196;8.096;2023-02-05T13:53:14;45.60;;;27.20;;
15982;SDS011;14442;50.196;8.096;2023-02-05T13:56:01;43.00;;;25.97;;
15982;SDS011;14442;50.196;8.096;2023-02-05T13:58:37;39.40;;;24.80;;
15982;SDS011;14442;50.196;8.096;2023-02-05T14:01:12;39.77;;;23.87;;
15982;SDS011;14442;50.196;8.096;2023-02-05T14:03:45;33.97;;;21.83;;
15982;SDS011;14442;50.196;8.096;2023-02-05T14:06:21;37.43;;;20.87;;
15982;SDS011;14442;50.196;8.096;2023-02-05T14:08:55;29.93;;;18.03;;
15982;SDS011;14442;50.196;8.096;2023-02-05T14:11:25;29.10;;;16.57;;
15982;SDS011;14442;50.196;8.096;2023-02-05T14:16:55;25.70;;;14.60;;
15982;SDS011;14442;50.196;8.096;2023-02-05T14:19:25;24.43;;;14.47;;
15982;SDS011;14442;50.196;8.096;2023-02-05T14:25:03;21.17;;;13.07;;
15982;SDS011;14442;50.196;8.096;2023-02-05T14:27:53;21.73;;;12.83;;
15982;SDS011;14442;50.196;8.096;2023-02-05T14:30:32;18.60;;;11.30;;
15982;SDS011;14442;50.196;8.096;2023-02-05T14:33:02;17.47;;;11.30;;
15982;SDS011;14442;50.196;8.096;2023-02-05T14:35:53;16.17;;;10.97;;
15982;SDS011;14442;50.196;8.096;2023-02-05T14:38:21;17.50;;;11.07;;
15982;SDS011;14442;50.196;8.096;2023-02-05T14:40:59;12.83;;;9.60;;
15982;SDS011;14442;50.196;8.096;2023-02-05T14:43:29;18.77;;;9.70;;
15982;SDS011;14442;50.196;8.096;2023-02-05T14:46:01;17.80;;;9.37;;
15982;SDS011;14442;50.196;8.096;2023-02-05T14:48:32;15.27;;;9.50;;
15982;SDS011;14442;50.196;8.096;2023-02-05T14:51:05;13.63;;;8.80;;
15982;SDS011;14442;50.196;8.096;2023-02-05T14:53:34;12.67;;;8.13;;
15982;SDS011;14442;50.196;8.096;2023-02-05T14:56:03;14.07;;;8.60;;
15982;SDS011;14442;50.196;8.096;2023-02-05T14:58:32;11.07;;;8.03;;
15982;SDS011;14442;50.196;8.096;2023-02-05T15:04:09;10.60;;;7.47;;
15982;SDS011;14442;50.196;8.096;2023-02-05T15:06:45;13.20;;;7.40;;
15982;SDS011;14442;50.196;8.096;2023-02-05T15:09:14;10.27;;;7.33;;
15982;SDS011;14442;50.196;8.096;2023-02-05T15:11:47;12.73;;;6.90;;
15982;SDS011;14442;50.196;8.096;2023-02-05T15:14:38;10.07;;;6.30;;
15982;SDS011;14442;50.196;8.096;2023-02-05T15:20:20;10.50;;;5.70;;
15982;SDS011;14442;50.196;8.096;2023-02-05T15:22:52;12.33;;;5.90;;
15982;SDS011;14442;50.196;8.096;2023-02-05T15:25:26;6.77;;;5.40;;
15982;SDS011;14442;50.196;8.096;2023-02-05T15:27:58;8.10;;;5.70;;